Wetterverlauf

Letzte Wetterlage 30.10.2014 15:05
Wetterdiagramm
Tabellarische Darstellung
Datum Temperatur Windchill Feuchte Luftdruck Windrichtung Windstärke Niederschlag
30.10.2014 15:05 14,9 °C 14,9 °C 87 % 1021,4 hPa 315 0.0 0,00 mm
30.10.2014 14:55 14,9 °C 14,9 °C 87 % 1021,4 hPa 0 0.7 0,00 mm
30.10.2014 14:45 14,8 °C 14,8 °C 87 % 1021,5 hPa 315 0.3 0,00 mm
30.10.2014 14:35 14,7 °C 14,7 °C 87 % 1021,2 hPa 0 0.0 0,00 mm
30.10.2014 14:25 14,7 °C 14,7 °C 87 % 1021,3 hPa 0 0.7 0,00 mm
30.10.2014 14:15 14,7 °C 14,7 °C 88 % 1021,3 hPa 0 0.3 0,00 mm
30.10.2014 14:05 14,5 °C 14,5 °C 88 % 1021,4 hPa 0 0.0 0,00 mm
30.10.2014 13:55 14,5 °C 14,5 °C 88 % 1021,6 hPa 0 0.7 0,00 mm
30.10.2014 13:45 14,4 °C 14,4 °C 88 % 1021,6 hPa 0 0.3 0,00 mm
30.10.2014 13:35 14,3 °C 14,3 °C 89 % 1021,6 hPa 0 0.0 0,00 mm
30.10.2014 13:25 14,2 °C 14,2 °C 89 % 1021,8 hPa 0 0.0 0,00 mm
30.10.2014 13:15 14,2 °C 14,2 °C 89 % 1021,8 hPa 0 0.0 0,00 mm
30.10.2014 13:05 14,3 °C 14,3 °C 90 % 1022,0 hPa 0 0.3 0,00 mm
30.10.2014 12:55 14,3 °C 14,3 °C 90 % 1021,9 hPa 0 0.0 0,00 mm
30.10.2014 12:45 14,3 °C 14,3 °C 90 % 1021,9 hPa 0 0.0 0,00 mm
30.10.2014 12:35 14,3 °C 14,3 °C 91 % 1021,8 hPa 0 0.0 0,00 mm
30.10.2014 12:25 14,3 °C 14,3 °C 91 % 1021,8 hPa 0 0.7 0,00 mm
30.10.2014 12:15 14,3 °C 14,3 °C 92 % 1021,8 hPa 0 0.3 0,00 mm
30.10.2014 12:05 14,0 °C 14,0 °C 92 % 1021,6 hPa 45 0.3 0,00 mm
30.10.2014 12:00 14,0 °C 14,0 °C 92 % 1021,7 hPa 45 0.3 0,00 mm
30.10.2014 11:55 14,0 °C 14,0 °C 92 % 1021,5 hPa 0 0.7 0,00 mm
30.10.2014 11:45 13,7 °C 13,7 °C 93 % 1021,5 hPa 45 0.3 0,00 mm
30.10.2014 11:35 13,3 °C 13,3 °C 93 % 1021,8 hPa 45 0.3 0,00 mm
30.10.2014 11:25 13,1 °C 13,1 °C 93 % 1021,8 hPa 45 0.3 0,00 mm
30.10.2014 11:15 12,8 °C 12,8 °C 93 % 1021,8 hPa 315 0.3 0,00 mm
Empfehlen Sie wetter.com
| Mehr
Neue Wetterwarnung

Neue Niederschlagsmeldung
Neue Meldung
Regen Liveticker
    sehr starker Regen/Gewitter
    starker Regen/Gewitter
    mäßiger bis starker Regen
    mäßiger Regen
    leichter bis mäßiger Regen
    kein Regen